sensor_id;sensor_type;location;lat;lon;timestamp;P1;durP1;ratioP1;P2;durP2;ratioP2
21862;SDS011;11096;51.338;12.524;2023-07-20T00:02:19;6.82;;;5.43;;
21862;SDS011;11096;51.338;12.524;2023-07-20T00:04:44;10.13;;;5.90;;
21862;SDS011;11096;51.338;12.524;2023-07-20T00:07:10;6.65;;;5.95;;
21862;SDS011;11096;51.338;12.524;2023-07-20T00:09:35;7.50;;;5.95;;
21862;SDS011;11096;51.338;12.524;2023-07-20T00:12:00;8.38;;;6.15;;
21862;SDS011;11096;51.338;12.524;2023-07-20T00:14:26;7.97;;;5.90;;
21862;SDS011;11096;51.338;12.524;2023-07-20T00:16:51;8.98;;;6.68;;
21862;SDS011;11096;51.338;12.524;2023-07-20T00:19:23;7.30;;;6.60;;
21862;SDS011;11096;51.338;12.524;2023-07-20T00:21:50;9.20;;;8.07;;
21862;SDS011;11096;51.338;12.524;2023-07-20T00:24:16;13.88;;;8.23;;
21862;SDS011;11096;51.338;12.524;2023-07-20T00:26:41;11.52;;;8.55;;
21862;SDS011;11096;51.338;12.524;2023-07-20T00:29:07;8.88;;;7.97;;
21862;SDS011;11096;51.338;12.524;2023-07-20T00:31:32;13.15;;;10.13;;
21862;SDS011;11096;51.338;12.524;2023-07-20T00:34:00;15.00;;;12.60;;
21862;SDS011;11096;51.338;12.524;2023-07-20T00:36:25;13.55;;;11.57;;
21862;SDS011;11096;51.338;12.524;2023-07-20T00:38:50;16.15;;;11.18;;
21862;SDS011;11096;51.338;12.524;2023-07-20T00:41:16;17.27;;;11.95;;
21862;SDS011;11096;51.338;12.524;2023-07-20T00:43:41;17.73;;;11.68;;
21862;SDS011;11096;51.338;12.524;2023-07-20T00:46:07;14.48;;;11.95;;
21862;SDS011;11096;51.338;12.524;2023-07-20T00:48:33;14.50;;;11.90;;
21862;SDS011;11096;51.338;12.524;2023-07-20T00:50:59;17.83;;;11.65;;
21862;SDS011;11096;51.338;12.524;2023-07-20T00:53:26;15.60;;;11.02;;
21862;SDS011;11096;51.338;12.524;2023-07-20T00:55:53;12.45;;;10.60;;
21862;SDS011;11096;51.338;12.524;2023-07-20T00:58:18;17.83;;;11.10;;
21862;SDS011;11096;51.338;12.524;2023-07-20T01:00:44;15.23;;;11.85;;
21862;SDS011;11096;51.338;12.524;2023-07-20T01:03:10;15.60;;;11.55;;
21862;SDS011;11096;51.338;12.524;2023-07-20T01:05:41;11.85;;;10.73;;
21862;SDS011;11096;51.338;12.524;2023-07-20T01:08:32;13.38;;;10.38;;
21862;SDS011;11096;51.338;12.524;2023-07-20T01:11:06;15.13;;;11.70;;
21862;SDS011;11096;51.338;12.524;2023-07-20T01:13:38;12.05;;;10.77;;
21862;SDS011;11096;51.338;12.524;2023-07-20T01:16:04;16.30;;;12.02;;
21862;SDS011;11096;51.338;12.524;2023-07-20T01:18:29;20.40;;;13.50;;
21862;SDS011;11096;51.338;12.524;2023-07-20T01:21:12;17.80;;;15.73;;
21862;SDS011;11096;51.338;12.524;2023-07-20T01:23:53;19.20;;;16.50;;
21862;SDS011;11096;51.338;12.524;2023-07-20T01:32:16;22.38;;;14.45;;
21862;SDS011;11096;51.338;12.524;2023-07-20T01:34:43;25.63;;;16.13;;
21862;SDS011;11096;51.338;12.524;2023-07-20T01:37:10;24.17;;;15.43;;
21862;SDS011;11096;51.338;12.524;2023-07-20T01:39:37;22.50;;;13.85;;
21862;SDS011;11096;51.338;12.524;2023-07-20T01:42:04;21.05;;;15.15;;
21862;SDS011;11096;51.338;12.524;2023-07-20T01:44:29;19.60;;;13.68;;
21862;SDS011;11096;51.338;12.524;2023-07-20T01:46:55;14.85;;;13.35;;
21862;SDS011;11096;51.338;12.524;2023-07-20T01:49:20;18.35;;;13.68;;
21862;SDS011;11096;51.338;12.524;2023-07-20T01:51:47;18.73;;;12.00;;
21862;SDS011;11096;51.338;12.524;2023-07-20T01:54:12;15.35;;;11.93;;
21862;SDS011;11096;51.338;12.524;2023-07-20T01:56:38;20.40;;;12.45;;
21862;SDS011;11096;51.338;12.524;2023-07-20T01:59:03;17.05;;;11.70;;
21862;SDS011;11096;51.338;12.524;2023-07-20T02:01:28;13.15;;;9.70;;
21862;SDS011;11096;51.338;12.524;2023-07-20T02:03:54;14.73;;;9.30;;
21862;SDS011;11096;51.338;12.524;2023-07-20T02:06:19;10.90;;;9.35;;
21862;SDS011;11096;51.338;12.524;2023-07-20T02:08:45;14.93;;;10.13;;
21862;SDS011;11096;51.338;12.524;2023-07-20T02:11:10;17.58;;;10.75;;
21862;SDS011;11096;51.338;12.524;2023-07-20T02:13:36;11.48;;;9.10;;
21862;SDS011;11096;51.338;12.524;2023-07-20T02:16:01;15.80;;;8.23;;
21862;SDS011;11096;51.338;12.524;2023-07-20T02:18:27;15.13;;;7.68;;
21862;SDS011;11096;51.338;12.524;2023-07-20T02:20:53;12.05;;;6.68;;
21862;SDS011;11096;51.338;12.524;2023-07-20T02:23:19;10.10;;;6.45;;
21862;SDS011;11096;51.338;12.524;2023-07-20T02:25:44;10.35;;;6.13;;
21862;SDS011;11096;51.338;12.524;2023-07-20T02:28:11;19.05;;;7.63;;
21862;SDS011;11096;51.338;12.524;2023-07-20T02:30:38;16.58;;;6.60;;
21862;SDS011;11096;51.338;12.524;2023-07-20T02:33:04;22.45;;;7.35;;
21862;SDS011;11096;51.338;12.524;2023-07-20T02:35:31;15.68;;;8.93;;
21862;SDS011;11096;51.338;12.524;2023-07-20T02:37:56;19.40;;;8.40;;
21862;SDS011;11096;51.338;12.524;2023-07-20T02:40:22;19.73;;;9.23;;
21862;SDS011;11096;51.338;12.524;2023-07-20T02:42:47;13.95;;;8.30;;
21862;SDS011;11096;51.338;12.524;2023-07-20T02:45:13;13.20;;;9.18;;
21862;SDS011;11096;51.338;12.524;2023-07-20T02:47:38;23.58;;;9.75;;
21862;SDS011;11096;51.338;12.524;2023-07-20T02:50:06;16.30;;;10.55;;
21862;SDS011;11096;51.338;12.524;2023-07-20T02:52:33;19.42;;;11.48;;
21862;SDS011;11096;51.338;12.524;2023-07-20T02:54:58;25.52;;;11.57;;
21862;SDS011;11096;51.338;12.524;2023-07-20T02:57:23;18.63;;;10.48;;
21862;SDS011;11096;51.338;12.524;2023-07-20T02:59:49;21.58;;;10.80;;
21862;SDS011;11096;51.338;12.524;2023-07-20T03:02:14;19.25;;;10.98;;
21862;SDS011;11096;51.338;12.524;2023-07-20T03:04:40;27.55;;;10.98;;
21862;SDS011;11096;51.338;12.524;2023-07-20T03:07:05;21.25;;;10.93;;
21862;SDS011;11096;51.338;12.524;2023-07-20T03:09:32;26.00;;;11.57;;
21862;SDS011;11096;51.338;12.524;2023-07-20T03:11:57;23.10;;;12.02;;
21862;SDS011;11096;51.338;12.524;2023-07-20T03:14:22;22.77;;;11.68;;
21862;SDS011;11096;51.338;12.524;2023-07-20T03:16:48;18.80;;;11.50;;
21862;SDS011;11096;51.338;12.524;2023-07-20T03:19:14;19.77;;;12.40;;
21862;SDS011;11096;51.338;12.524;2023-07-20T03:21:39;19.75;;;10.98;;
21862;SDS011;11096;51.338;12.524;2023-07-20T03:24:06;17.52;;;11.20;;
21862;SDS011;11096;51.338;12.524;2023-07-20T03:26:33;16.45;;;10.57;;
21862;SDS011;11096;51.338;12.524;2023-07-20T03:29:00;19.83;;;11.18;;
21862;SDS011;11096;51.338;12.524;2023-07-20T03:31:25;17.83;;;10.82;;
21862;SDS011;11096;51.338;12.524;2023-07-20T03:33:51;18.30;;;10.98;;
21862;SDS011;11096;51.338;12.524;2023-07-20T03:36:17;14.23;;;9.48;;
21862;SDS011;11096;51.338;12.524;2023-07-20T03:38:42;17.25;;;10.35;;
21862;SDS011;11096;51.338;12.524;2023-07-20T03:41:08;16.00;;;10.40;;
21862;SDS011;11096;51.338;12.524;2023-07-20T03:43:34;17.67;;;10.63;;
21862;SDS011;11096;51.338;12.524;2023-07-20T03:45:59;15.10;;;10.75;;
21862;SDS011;11096;51.338;12.524;2023-07-20T03:48:25;18.38;;;11.73;;
21862;SDS011;11096;51.338;12.524;2023-07-20T03:50:51;17.25;;;10.65;;
21862;SDS011;11096;51.338;12.524;2023-07-20T03:53:18;17.73;;;10.30;;
21862;SDS011;11096;51.338;12.524;2023-07-20T03:55:47;15.35;;;9.68;;
21862;SDS011;11096;51.338;12.524;2023-07-20T03:58:13;13.25;;;10.20;;
21862;SDS011;11096;51.338;12.524;2023-07-20T04:00:39;14.43;;;9.10;;
21862;SDS011;11096;51.338;12.524;2023-07-20T04:03:05;18.38;;;9.90;;
21862;SDS011;11096;51.338;12.524;2023-07-20T04:05:31;16.55;;;9.95;;
21862;SDS011;11096;51.338;12.524;2023-07-20T04:07:56;16.58;;;9.80;;
21862;SDS011;11096;51.338;12.524;2023-07-20T04:10:22;14.98;;;10.25;;
21862;SDS011;11096;51.338;12.524;2023-07-20T04:12:47;13.80;;;9.70;;
21862;SDS011;11096;51.338;12.524;2023-07-20T04:15:13;16.50;;;9.55;;
21862;SDS011;11096;51.338;12.524;2023-07-20T04:17:39;13.35;;;8.57;;
21862;SDS011;11096;51.338;12.524;2023-07-20T04:20:05;13.25;;;8.60;;
21862;SDS011;11096;51.338;12.524;2023-07-20T04:22:31;12.35;;;8.00;;
21862;SDS011;11096;51.338;12.524;2023-07-20T04:24:57;9.70;;;7.35;;
21862;SDS011;11096;51.338;12.524;2023-07-20T04:27:22;9.13;;;6.78;;
21862;SDS011;11096;51.338;12.524;2023-07-20T04:29:48;7.18;;;6.13;;
21862;SDS011;11096;51.338;12.524;2023-07-20T04:32:13;8.63;;;5.68;;
21862;SDS011;11096;51.338;12.524;2023-07-20T04:34:38;10.20;;;5.38;;
21862;SDS011;11096;51.338;12.524;2023-07-20T04:37:04;8.82;;;5.18;;
21862;SDS011;11096;51.338;12.524;2023-07-20T04:39:30;14.15;;;5.70;;
21862;SDS011;11096;51.338;12.524;2023-07-20T04:41:56;7.75;;;5.47;;
21862;SDS011;11096;51.338;12.524;2023-07-20T04:44:21;14.35;;;6.05;;
21862;SDS011;11096;51.338;12.524;2023-07-20T04:46:47;12.82;;;6.10;;
21862;SDS011;11096;51.338;12.524;2023-07-20T04:49:12;13.88;;;6.45;;
21862;SDS011;11096;51.338;12.524;2023-07-20T04:51:38;15.30;;;5.88;;
21862;SDS011;11096;51.338;12.524;2023-07-20T04:54:04;10.75;;;5.93;;
21862;SDS011;11096;51.338;12.524;2023-07-20T04:56:29;9.18;;;5.57;;
21862;SDS011;11096;51.338;12.524;2023-07-20T04:58:55;6.22;;;4.97;;
21862;SDS011;11096;51.338;12.524;2023-07-20T05:01:20;10.02;;;5.07;;
21862;SDS011;11096;51.338;12.524;2023-07-20T05:03:46;7.15;;;4.90;;
21862;SDS011;11096;51.338;12.524;2023-07-20T05:06:11;7.97;;;5.60;;
21862;SDS011;11096;51.338;12.524;2023-07-20T05:08:37;9.75;;;5.20;;
21862;SDS011;11096;51.338;12.524;2023-07-20T05:11:04;8.77;;;5.60;;
21862;SDS011;11096;51.338;12.524;2023-07-20T05:13:29;12.23;;;5.40;;
21862;SDS011;11096;51.338;12.524;2023-07-20T05:15:54;10.07;;;5.32;;
21862;SDS011;11096;51.338;12.524;2023-07-20T05:18:20;10.57;;;5.93;;
21862;SDS011;11096;51.338;12.524;2023-07-20T05:20:46;8.63;;;5.65;;
21862;SDS011;11096;51.338;12.524;2023-07-20T05:23:12;11.38;;;6.00;;
21862;SDS011;11096;51.338;12.524;2023-07-20T05:25:38;12.13;;;6.57;;
21862;SDS011;11096;51.338;12.524;2023-07-20T05:28:03;13.75;;;5.70;;
21862;SDS011;11096;51.338;12.524;2023-07-20T05:30:29;9.38;;;6.15;;
21862;SDS011;11096;51.338;12.524;2023-07-20T05:32:54;10.13;;;5.70;;
21862;SDS011;11096;51.338;12.524;2023-07-20T05:35:20;5.88;;;4.97;;
21862;SDS011;11096;51.338;12.524;2023-07-20T05:37:45;8.15;;;5.13;;
21862;SDS011;11096;51.338;12.524;2023-07-20T05:40:11;11.35;;;5.80;;
21862;SDS011;11096;51.338;12.524;2023-07-20T05:42:38;9.88;;;5.15;;
21862;SDS011;11096;51.338;12.524;2023-07-20T05:45:04;8.55;;;4.60;;
21862;SDS011;11096;51.338;12.524;2023-07-20T05:47:30;8.00;;;4.85;;
21862;SDS011;11096;51.338;12.524;2023-07-20T05:49:55;8.43;;;4.10;;
21862;SDS011;11096;51.338;12.524;2023-07-20T05:52:20;5.18;;;4.57;;
21862;SDS011;11096;51.338;12.524;2023-07-20T05:54:46;6.18;;;4.43;;
21862;SDS011;11096;51.338;12.524;2023-07-20T05:57:11;5.20;;;4.10;;
21862;SDS011;11096;51.338;12.524;2023-07-20T05:59:36;11.18;;;4.60;;
21862;SDS011;11096;51.338;12.524;2023-07-20T06:02:03;9.25;;;4.70;;
21862;SDS011;11096;51.338;12.524;2023-07-20T06:04:29;6.18;;;4.57;;
21862;SDS011;11096;51.338;12.524;2023-07-20T06:06:54;9.75;;;4.32;;
21862;SDS011;11096;51.338;12.524;2023-07-20T06:09:22;5.97;;;4.28;;
21862;SDS011;11096;51.338;12.524;2023-07-20T06:11:48;6.28;;;4.18;;
21862;SDS011;11096;51.338;12.524;2023-07-20T06:14:13;4.15;;;3.80;;
21862;SDS011;11096;51.338;12.524;2023-07-20T06:16:40;9.77;;;4.05;;
21862;SDS011;11096;51.338;12.524;2023-07-20T06:19:05;5.07;;;4.05;;
21862;SDS011;11096;51.338;12.524;2023-07-20T06:21:31;8.10;;;3.60;;
21862;SDS011;11096;51.338;12.524;2023-07-20T06:23:56;10.00;;;4.00;;
21862;SDS011;11096;51.338;12.524;2023-07-20T06:26:21;7.60;;;3.67;;
21862;SDS011;11096;51.338;12.524;2023-07-20T06:28:47;5.13;;;3.28;;
21862;SDS011;11096;51.338;12.524;2023-07-20T06:31:12;5.82;;;3.47;;
21862;SDS011;11096;51.338;12.524;2023-07-20T06:33:38;11.52;;;3.10;;
21862;SDS011;11096;51.338;12.524;2023-07-20T06:36:03;5.78;;;2.55;;
21862;SDS011;11096;51.338;12.524;2023-07-20T06:38:29;5.32;;;3.10;;
21862;SDS011;11096;51.338;12.524;2023-07-20T06:40:54;5.93;;;3.10;;
21862;SDS011;11096;51.338;12.524;2023-07-20T06:43:20;10.50;;;3.03;;
21862;SDS011;11096;51.338;12.524;2023-07-20T06:45:50;4.93;;;2.65;;
21862;SDS011;11096;51.338;12.524;2023-07-20T06:48:17;4.78;;;2.75;;
21862;SDS011;11096;51.338;12.524;2023-07-20T06:50:42;4.10;;;2.47;;
21862;SDS011;11096;51.338;12.524;2023-07-20T06:53:08;6.25;;;2.75;;
21862;SDS011;11096;51.338;12.524;2023-07-20T06:55:33;4.82;;;3.30;;
21862;SDS011;11096;51.338;12.524;2023-07-20T06:57:59;8.93;;;2.95;;
21862;SDS011;11096;51.338;12.524;2023-07-20T07:00:24;4.18;;;2.50;;
21862;SDS011;11096;51.338;12.524;2023-07-20T07:02:49;4.45;;;2.80;;
21862;SDS011;11096;51.338;12.524;2023-07-20T07:05:15;5.40;;;2.60;;
21862;SDS011;11096;51.338;12.524;2023-07-20T07:07:41;4.18;;;2.55;;
21862;SDS011;11096;51.338;12.524;2023-07-20T07:10:07;6.70;;;2.25;;
21862;SDS011;11096;51.338;12.524;2023-07-20T07:12:33;6.22;;;1.92;;
21862;SDS011;11096;51.338;12.524;2023-07-20T07:14:59;3.92;;;1.50;;
21862;SDS011;11096;51.338;12.524;2023-07-20T07:17:25;5.63;;;1.70;;
21862;SDS011;11096;51.338;12.524;2023-07-20T07:19:51;3.47;;;1.98;;
21862;SDS011;11096;51.338;12.524;2023-07-20T07:22:19;6.53;;;2.13;;
21862;SDS011;11096;51.338;12.524;2023-07-20T07:24:46;4.65;;;2.15;;
21862;SDS011;11096;51.338;12.524;2023-07-20T07:27:11;6.10;;;2.47;;
21862;SDS011;11096;51.338;12.524;2023-07-20T07:29:37;6.68;;;1.73;;
21862;SDS011;11096;51.338;12.524;2023-07-20T07:32:02;6.30;;;2.50;;
21862;SDS011;11096;51.338;12.524;2023-07-20T07:34:28;3.72;;;1.77;;
21862;SDS011;11096;51.338;12.524;2023-07-20T07:36:54;5.80;;;2.13;;
21862;SDS011;11096;51.338;12.524;2023-07-20T07:39:19;4.60;;;1.95;;
21862;SDS011;11096;51.338;12.524;2023-07-20T07:41:45;3.28;;;1.58;;
21862;SDS011;11096;51.338;12.524;2023-07-20T07:44:10;5.50;;;1.92;;
21862;SDS011;11096;51.338;12.524;2023-07-20T07:46:36;6.38;;;2.08;;
21862;SDS011;11096;51.338;12.524;2023-07-20T07:49:01;4.43;;;1.80;;
21862;SDS011;11096;51.338;12.524;2023-07-20T07:51:27;4.13;;;2.40;;
21862;SDS011;11096;51.338;12.524;2023-07-20T07:53:52;2.92;;;2.72;;
21862;SDS011;11096;51.338;12.524;2023-07-20T07:56:18;7.25;;;2.10;;
21862;SDS011;11096;51.338;12.524;2023-07-20T07:58:47;7.72;;;2.47;;
21862;SDS011;11096;51.338;12.524;2023-07-20T08:01:17;5.18;;;2.30;;
21862;SDS011;11096;51.338;12.524;2023-07-20T08:03:44;2.95;;;2.20;;
21862;SDS011;11096;51.338;12.524;2023-07-20T08:06:12;4.60;;;2.35;;
21862;SDS011;11096;51.338;12.524;2023-07-20T08:08:38;5.32;;;2.03;;
21862;SDS011;11096;51.338;12.524;2023-07-20T08:11:03;3.10;;;1.90;;
21862;SDS011;11096;51.338;12.524;2023-07-20T08:13:29;3.53;;;1.80;;
21862;SDS011;11096;51.338;12.524;2023-07-20T08:15:55;2.28;;;1.60;;
21862;SDS011;11096;51.338;12.524;2023-07-20T08:18:20;2.95;;;1.80;;
21862;SDS011;11096;51.338;12.524;2023-07-20T08:20:46;5.55;;;1.90;;
21862;SDS011;11096;51.338;12.524;2023-07-20T08:23:12;4.25;;;2.10;;
21862;SDS011;11096;51.338;12.524;2023-07-20T08:25:38;6.57;;;2.45;;
21862;SDS011;11096;51.338;12.524;2023-07-20T08:28:08;4.43;;;2.30;;
21862;SDS011;11096;51.338;12.524;2023-07-20T08:30:47;3.38;;;1.98;;
21862;SDS011;11096;51.338;12.524;2023-07-20T08:33:14;5.10;;;2.10;;
21862;SDS011;11096;51.338;12.524;2023-07-20T08:35:41;3.67;;;2.28;;
21862;SDS011;11096;51.338;12.524;2023-07-20T08:38:06;4.18;;;1.85;;
21862;SDS011;11096;51.338;12.524;2023-07-20T08:40:33;3.55;;;1.88;;
21862;SDS011;11096;51.338;12.524;2023-07-20T08:42:59;3.83;;;1.77;;
21862;SDS011;11096;51.338;12.524;2023-07-20T08:45:27;4.00;;;2.17;;
21862;SDS011;11096;51.338;12.524;2023-07-20T08:47:57;5.78;;;2.30;;
21862;SDS011;11096;51.338;12.524;2023-07-20T08:50:25;3.05;;;2.50;;
21862;SDS011;11096;51.338;12.524;2023-07-20T08:52:52;7.18;;;3.28;;
21862;SDS011;11096;51.338;12.524;2023-07-20T08:55:19;8.45;;;2.45;;
21862;SDS011;11096;51.338;12.524;2023-07-20T08:57:47;5.70;;;2.78;;
21862;SDS011;11096;51.338;12.524;2023-07-20T09:00:15;6.03;;;3.00;;
21862;SDS011;11096;51.338;12.524;2023-07-20T09:02:42;4.80;;;2.53;;
21862;SDS011;11096;51.338;12.524;2023-07-20T09:05:10;5.63;;;3.00;;
21862;SDS011;11096;51.338;12.524;2023-07-20T09:07:36;5.25;;;2.90;;
21862;SDS011;11096;51.338;12.524;2023-07-20T09:10:01;3.75;;;2.63;;
21862;SDS011;11096;51.338;12.524;2023-07-20T09:12:31;4.57;;;2.50;;
21862;SDS011;11096;51.338;12.524;2023-07-20T09:14:59;6.15;;;1.90;;
21862;SDS011;11096;51.338;12.524;2023-07-20T09:17:26;4.85;;;2.10;;
21862;SDS011;11096;51.338;12.524;2023-07-20T09:19:52;3.38;;;1.70;;
21862;SDS011;11096;51.338;12.524;2023-07-20T09:22:17;3.38;;;1.40;;
21862;SDS011;11096;51.338;12.524;2023-07-20T09:24:43;6.10;;;1.88;;
21862;SDS011;11096;51.338;12.524;2023-07-20T09:27:09;4.60;;;2.10;;
21862;SDS011;11096;51.338;12.524;2023-07-20T09:29:46;3.85;;;1.73;;
21862;SDS011;11096;51.338;12.524;2023-07-20T09:32:13;6.93;;;2.13;;
21862;SDS011;11096;51.338;12.524;2023-07-20T09:34:46;4.55;;;1.55;;
21862;SDS011;11096;51.338;12.524;2023-07-20T09:37:12;3.45;;;1.83;;
21862;SDS011;11096;51.338;12.524;2023-07-20T09:39:44;3.35;;;1.63;;
21862;SDS011;11096;51.338;12.524;2023-07-20T09:42:13;5.60;;;2.20;;
21862;SDS011;11096;51.338;12.524;2023-07-20T09:44:39;4.65;;;2.35;;
21862;SDS011;11096;51.338;12.524;2023-07-20T09:47:08;6.47;;;2.10;;
21862;SDS011;11096;51.338;12.524;2023-07-20T09:49:38;3.70;;;1.88;;
21862;SDS011;11096;51.338;12.524;2023-07-20T09:52:10;5.10;;;1.95;;
21862;SDS011;11096;51.338;12.524;2023-07-20T09:54:39;4.30;;;2.28;;
21862;SDS011;11096;51.338;12.524;2023-07-20T09:57:08;5.68;;;2.13;;
21862;SDS011;11096;51.338;12.524;2023-07-20T09:59:37;8.93;;;2.90;;
21862;SDS011;11096;51.338;12.524;2023-07-20T10:02:05;11.48;;;3.10;;
21862;SDS011;11096;51.338;12.524;2023-07-20T10:04:38;4.93;;;3.53;;
21862;SDS011;11096;51.338;12.524;2023-07-20T10:07:05;11.20;;;4.47;;
21862;SDS011;11096;51.338;12.524;2023-07-20T10:09:35;11.07;;;4.95;;
21862;SDS011;11096;51.338;12.524;2023-07-20T10:12:05;13.32;;;7.43;;
21862;SDS011;11096;51.338;12.524;2023-07-20T10:14:34;12.60;;;9.98;;
21862;SDS011;11096;51.338;12.524;2023-07-20T10:17:03;9.65;;;8.30;;
21862;SDS011;11096;51.338;12.524;2023-07-20T10:19:42;16.35;;;12.23;;
21862;SDS011;11096;51.338;12.524;2023-07-20T10:22:14;12.77;;;11.52;;
21862;SDS011;11096;51.338;12.524;2023-07-20T10:24:45;15.10;;;13.40;;
21862;SDS011;11096;51.338;12.524;2023-07-20T10:27:13;17.80;;;14.57;;
21862;SDS011;11096;51.338;12.524;2023-07-20T10:29:39;17.17;;;14.82;;
21862;SDS011;11096;51.338;12.524;2023-07-20T10:32:06;14.18;;;12.73;;
21862;SDS011;11096;51.338;12.524;2023-07-20T10:34:33;15.07;;;11.77;;
21862;SDS011;11096;51.338;12.524;2023-07-20T10:36:58;9.43;;;7.80;;
21862;SDS011;11096;51.338;12.524;2023-07-20T10:39:25;11.95;;;8.13;;
21862;SDS011;11096;51.338;12.524;2023-07-20T10:42:08;11.20;;;8.80;;
21862;SDS011;11096;51.338;12.524;2023-07-20T10:44:38;10.68;;;7.65;;
21862;SDS011;11096;51.338;12.524;2023-07-20T10:47:11;9.77;;;7.78;;
21862;SDS011;11096;51.338;12.524;2023-07-20T10:52:37;6.93;;;4.63;;
21862;SDS011;11096;51.338;12.524;2023-07-20T10:55:11;3.75;;;2.85;;
21862;SDS011;11096;51.338;12.524;2023-07-20T10:57:39;2.08;;;1.98;;
21862;SDS011;11096;51.338;12.524;2023-07-20T11:00:14;2.88;;;2.45;;
21862;SDS011;11096;51.338;12.524;2023-07-20T11:08:12;4.18;;;3.28;;
21862;SDS011;11096;51.338;12.524;2023-07-20T11:11:22;3.35;;;3.00;;
21862;SDS011;11096;51.338;12.524;2023-07-20T11:19:22;3.80;;;2.80;;
21862;SDS011;11096;51.338;12.524;2023-07-20T11:21:54;3.05;;;2.75;;
21862;SDS011;11096;51.338;12.524;2023-07-20T11:24:21;2.88;;;2.50;;
21862;SDS011;11096;51.338;12.524;2023-07-20T11:26:47;2.42;;;2.03;;
21862;SDS011;11096;51.338;12.524;2023-07-20T11:29:16;5.50;;;1.90;;
21862;SDS011;11096;51.338;12.524;2023-07-20T11:31:44;2.38;;;1.80;;
21862;SDS011;11096;51.338;12.524;2023-07-20T11:34:11;4.00;;;2.08;;
21862;SDS011;11096;51.338;12.524;2023-07-20T11:36:41;2.17;;;1.98;;
21862;SDS011;11096;51.338;12.524;2023-07-20T11:39:10;3.47;;;1.90;;
21862;SDS011;11096;51.338;12.524;2023-07-20T11:41:37;2.42;;;1.60;;
21862;SDS011;11096;51.338;12.524;2023-07-20T11:44:03;3.08;;;1.58;;
21862;SDS011;11096;51.338;12.524;2023-07-20T11:46:31;2.38;;;1.35;;
21862;SDS011;11096;51.338;12.524;2023-07-20T11:48:57;2.67;;;1.40;;
21862;SDS011;11096;51.338;12.524;2023-07-20T11:51:28;3.80;;;1.20;;
21862;SDS011;11096;51.338;12.524;2023-07-20T11:53:54;3.88;;;1.77;;
21862;SDS011;11096;51.338;12.524;2023-07-20T11:56:20;2.08;;;1.42;;
21862;SDS011;11096;51.338;12.524;2023-07-20T11:58:45;2.42;;;1.48;;
21862;SDS011;11096;51.338;12.524;2023-07-20T12:01:12;2.00;;;1.00;;
21862;SDS011;11096;51.338;12.524;2023-07-20T12:03:38;5.97;;;1.48;;
21862;SDS011;11096;51.338;12.524;2023-07-20T12:06:07;2.47;;;1.10;;
21862;SDS011;11096;51.338;12.524;2023-07-20T12:08:33;3.50;;;1.20;;
21862;SDS011;11096;51.338;12.524;2023-07-20T12:10:58;1.42;;;1.33;;
21862;SDS011;11096;51.338;12.524;2023-07-20T12:13:34;4.88;;;1.02;;
21862;SDS011;11096;51.338;12.524;2023-07-20T12:16:06;1.88;;;1.10;;
21862;SDS011;11096;51.338;12.524;2023-07-20T12:18:34;1.88;;;1.23;;
21862;SDS011;11096;51.338;12.524;2023-07-20T12:21:01;1.30;;;1.13;;
21862;SDS011;11096;51.338;12.524;2023-07-20T12:23:34;3.88;;;1.40;;
21862;SDS011;11096;51.338;12.524;2023-07-20T12:26:01;3.03;;;1.42;;
21862;SDS011;11096;51.338;12.524;2023-07-20T12:28:26;6.53;;;1.60;;
21862;SDS011;11096;51.338;12.524;2023-07-20T12:30:51;1.80;;;1.70;;
21862;SDS011;11096;51.338;12.524;2023-07-20T12:33:21;3.03;;;1.45;;
21862;SDS011;11096;51.338;12.524;2023-07-20T12:35:48;2.65;;;1.48;;
21862;SDS011;11096;51.338;12.524;2023-07-20T12:38:14;2.97;;;1.48;;
21862;SDS011;11096;51.338;12.524;2023-07-20T12:40:40;3.88;;;1.35;;
21862;SDS011;11096;51.338;12.524;2023-07-20T12:43:06;3.10;;;1.60;;
21862;SDS011;11096;51.338;12.524;2023-07-20T12:45:32;2.60;;;1.15;;
21862;SDS011;11096;51.338;12.524;2023-07-20T12:47:58;1.95;;;1.17;;
21862;SDS011;11096;51.338;12.524;2023-07-20T12:50:24;1.20;;;0.60;;
21862;SDS011;11096;51.338;12.524;2023-07-20T12:52:49;1.17;;;0.40;;
21862;SDS011;11096;51.338;12.524;2023-07-20T12:55:15;3.28;;;0.65;;
21862;SDS011;11096;51.338;12.524;2023-07-20T12:57:40;1.60;;;0.55;;
21862;SDS011;11096;51.338;12.524;2023-07-20T13:00:06;1.42;;;0.40;;
21862;SDS011;11096;51.338;12.524;2023-07-20T13:02:35;1.45;;;0.50;;
21862;SDS011;11096;51.338;12.524;2023-07-20T13:05:01;0.90;;;0.40;;
21862;SDS011;11096;51.338;12.524;2023-07-20T13:07:34;2.13;;;0.30;;
21862;SDS011;11096;51.338;12.524;2023-07-20T13:10:02;2.40;;;0.40;;
21862;SDS011;11096;51.338;12.524;2023-07-20T13:12:29;0.63;;;0.22;;
21862;SDS011;11096;51.338;12.524;2023-07-20T13:14:55;2.97;;;0.30;;
21862;SDS011;11096;51.338;12.524;2023-07-20T13:17:22;2.13;;;0.28;;
21862;SDS011;11096;51.338;12.524;2023-07-20T13:19:47;0.93;;;0.30;;
21862;SDS011;11096;51.338;12.524;2023-07-20T13:22:13;0.30;;;0.20;;
21862;SDS011;11096;51.338;12.524;2023-07-20T13:24:39;0.40;;;0.40;;
21862;SDS011;11096;51.338;12.524;2023-07-20T13:27:05;1.48;;;0.50;;
21862;SDS011;11096;51.338;12.524;2023-07-20T13:29:31;1.38;;;0.32;;
21862;SDS011;11096;51.338;12.524;2023-07-20T13:31:57;0.40;;;0.40;;
21862;SDS011;11096;51.338;12.524;2023-07-20T13:34:23;4.30;;;0.60;;
21862;SDS011;11096;51.338;12.524;2023-07-20T13:36:49;0.45;;;0.40;;
21862;SDS011;11096;51.338;12.524;2023-07-20T13:39:14;0.95;;;0.40;;
21862;SDS011;11096;51.338;12.524;2023-07-20T13:41:40;0.93;;;0.50;;
21862;SDS011;11096;51.338;12.524;2023-07-20T13:44:05;0.68;;;0.50;;
21862;SDS011;11096;51.338;12.524;2023-07-20T13:46:30;0.63;;;0.40;;
21862;SDS011;11096;51.338;12.524;2023-07-20T13:48:56;1.67;;;0.73;;
21862;SDS011;11096;51.338;12.524;2023-07-20T13:51:21;1.73;;;0.50;;
21862;SDS011;11096;51.338;12.524;2023-07-20T13:53:47;1.00;;;0.73;;
21862;SDS011;11096;51.338;12.524;2023-07-20T13:56:13;2.13;;;0.85;;
21862;SDS011;11096;51.338;12.524;2023-07-20T13:58:39;0.60;;;0.60;;
21862;SDS011;11096;51.338;12.524;2023-07-20T14:01:04;0.90;;;0.90;;
21862;SDS011;11096;51.338;12.524;2023-07-20T14:03:29;1.90;;;1.10;;
21862;SDS011;11096;51.338;12.524;2023-07-20T14:05:55;2.45;;;1.08;;
21862;SDS011;11096;51.338;12.524;2023-07-20T14:08:21;2.00;;;1.17;;
21862;SDS011;11096;51.338;12.524;2023-07-20T14:10:47;1.58;;;1.13;;
21862;SDS011;11096;51.338;12.524;2023-07-20T14:13:13;1.45;;;1.02;;
21862;SDS011;11096;51.338;12.524;2023-07-20T14:15:39;1.10;;;1.00;;
21862;SDS011;11096;51.338;12.524;2023-07-20T14:18:04;1.30;;;1.20;;
21862;SDS011;11096;51.338;12.524;2023-07-20T14:20:30;1.60;;;1.15;;
21862;SDS011;11096;51.338;12.524;2023-07-20T14:22:55;2.10;;;1.17;;
21862;SDS011;11096;51.338;12.524;2023-07-20T14:25:21;1.27;;;1.00;;
21862;SDS011;11096;51.338;12.524;2023-07-20T14:27:46;1.45;;;1.35;;
21862;SDS011;11096;51.338;12.524;2023-07-20T14:30:12;2.08;;;1.50;;
21862;SDS011;11096;51.338;12.524;2023-07-20T14:32:38;2.67;;;1.20;;
21862;SDS011;11096;51.338;12.524;2023-07-20T14:35:03;1.63;;;1.23;;
21862;SDS011;11096;51.338;12.524;2023-07-20T14:37:29;1.90;;;1.27;;
21862;SDS011;11096;51.338;12.524;2023-07-20T14:39:55;1.33;;;1.20;;
21862;SDS011;11096;51.338;12.524;2023-07-20T14:42:20;1.35;;;1.10;;
21862;SDS011;11096;51.338;12.524;2023-07-20T14:44:46;1.70;;;1.05;;